sensor_id;sensor_type;location;lat;lon;timestamp;P1;durP1;ratioP1;P2;durP2;ratioP2
3845;SDS011;1938;50.812;7.738;2022-09-28T00:01:43;9.10;;;2.90;;
3845;SDS011;1938;50.812;7.738;2022-09-28T00:04:09;4.60;;;2.43;;
3845;SDS011;1938;50.812;7.738;2022-09-28T00:06:35;6.43;;;2.30;;
3845;SDS011;1938;50.812;7.738;2022-09-28T00:09:02;6.63;;;2.57;;
3845;SDS011;1938;50.812;7.738;2022-09-28T00:11:28;8.07;;;2.70;;
3845;SDS011;1938;50.812;7.738;2022-09-28T00:13:55;3.53;;;2.30;;
3845;SDS011;1938;50.812;7.738;2022-09-28T00:16:27;4.40;;;2.40;;
3845;SDS011;1938;50.812;7.738;2022-09-28T00:18:55;6.83;;;3.53;;
3845;SDS011;1938;50.812;7.738;2022-09-28T00:21:21;8.67;;;4.83;;
3845;SDS011;1938;50.812;7.738;2022-09-28T00:23:52;13.93;;;4.13;;
3845;SDS011;1938;50.812;7.738;2022-09-28T00:26:38;4.13;;;2.47;;
3845;SDS011;1938;50.812;7.738;2022-09-28T00:29:24;6.10;;;2.50;;
3845;SDS011;1938;50.812;7.738;2022-09-28T00:31:52;4.43;;;2.80;;
3845;SDS011;1938;50.812;7.738;2022-09-28T00:34:23;7.73;;;2.77;;
3845;SDS011;1938;50.812;7.738;2022-09-28T00:36:52;6.60;;;2.80;;
3845;SDS011;1938;50.812;7.738;2022-09-28T00:39:18;5.93;;;2.40;;
3845;SDS011;1938;50.812;7.738;2022-09-28T00:41:44;5.10;;;3.03;;
3845;SDS011;1938;50.812;7.738;2022-09-28T00:52:14;6.63;;;3.67;;
3845;SDS011;1938;50.812;7.738;2022-09-28T00:54:46;5.20;;;3.33;;
3845;SDS011;1938;50.812;7.738;2022-09-28T00:57:13;13.40;;;3.67;;
3845;SDS011;1938;50.812;7.738;2022-09-28T00:59:39;5.60;;;2.53;;
3845;SDS011;1938;50.812;7.738;2022-09-28T01:02:05;6.70;;;2.50;;
3845;SDS011;1938;50.812;7.738;2022-09-28T01:04:31;4.83;;;2.70;;
3845;SDS011;1938;50.812;7.738;2022-09-28T01:06:57;7.10;;;3.47;;
3845;SDS011;1938;50.812;7.738;2022-09-28T01:09:24;8.00;;;3.00;;
3845;SDS011;1938;50.812;7.738;2022-09-28T01:11:51;7.10;;;3.60;;
3845;SDS011;1938;50.812;7.738;2022-09-28T01:14:17;6.90;;;3.53;;
3845;SDS011;1938;50.812;7.738;2022-09-28T01:22:26;5.90;;;3.17;;
3845;SDS011;1938;50.812;7.738;2022-09-28T01:25:11;4.83;;;3.03;;
3845;SDS011;1938;50.812;7.738;2022-09-28T01:27:46;10.77;;;3.60;;
3845;SDS011;1938;50.812;7.738;2022-09-28T01:30:18;7.67;;;3.40;;
3845;SDS011;1938;50.812;7.738;2022-09-28T01:35:31;7.23;;;3.47;;
3845;SDS011;1938;50.812;7.738;2022-09-28T01:38:05;7.70;;;3.27;;
3845;SDS011;1938;50.812;7.738;2022-09-28T01:40:37;5.43;;;3.50;;
3845;SDS011;1938;50.812;7.738;2022-09-28T01:43:08;6.80;;;3.50;;
3845;SDS011;1938;50.812;7.738;2022-09-28T01:46:00;6.10;;;3.23;;
3845;SDS011;1938;50.812;7.738;2022-09-28T01:48:34;5.07;;;2.80;;
3845;SDS011;1938;50.812;7.738;2022-09-28T01:51:04;4.50;;;3.03;;
3845;SDS011;1938;50.812;7.738;2022-09-28T01:53:40;6.00;;;2.70;;
3845;SDS011;1938;50.812;7.738;2022-09-28T01:56:11;8.37;;;3.37;;
3845;SDS011;1938;50.812;7.738;2022-09-28T01:58:43;4.87;;;2.90;;
3845;SDS011;1938;50.812;7.738;2022-09-28T02:01:20;5.07;;;2.50;;
3845;SDS011;1938;50.812;7.738;2022-09-28T02:04:17;10.10;;;2.57;;
3845;SDS011;1938;50.812;7.738;2022-09-28T02:06:49;6.57;;;3.37;;
3845;SDS011;1938;50.812;7.738;2022-09-28T02:09:21;5.93;;;3.00;;
3845;SDS011;1938;50.812;7.738;2022-09-28T02:12:04;4.43;;;2.77;;
3845;SDS011;1938;50.812;7.738;2022-09-28T02:14:35;6.30;;;3.07;;
3845;SDS011;1938;50.812;7.738;2022-09-28T02:17:04;4.73;;;2.80;;
3845;SDS011;1938;50.812;7.738;2022-09-28T02:19:30;5.67;;;2.67;;
3845;SDS011;1938;50.812;7.738;2022-09-28T02:24:35;4.00;;;2.47;;
3845;SDS011;1938;50.812;7.738;2022-09-28T02:27:15;7.73;;;3.17;;
3845;SDS011;1938;50.812;7.738;2022-09-28T02:29:55;3.90;;;2.63;;
3845;SDS011;1938;50.812;7.738;2022-09-28T02:32:20;6.73;;;3.37;;
3845;SDS011;1938;50.812;7.738;2022-09-28T02:34:48;6.27;;;3.20;;
3845;SDS011;1938;50.812;7.738;2022-09-28T02:37:13;7.67;;;3.90;;
3845;SDS011;1938;50.812;7.738;2022-09-28T02:39:39;5.70;;;3.30;;
3845;SDS011;1938;50.812;7.738;2022-09-28T02:42:23;4.87;;;3.03;;
3845;SDS011;1938;50.812;7.738;2022-09-28T02:45:14;6.87;;;3.50;;
3845;SDS011;1938;50.812;7.738;2022-09-28T02:50:21;8.77;;;3.43;;
3845;SDS011;1938;50.812;7.738;2022-09-28T02:52:56;8.77;;;3.27;;
3845;SDS011;1938;50.812;7.738;2022-09-28T02:58:34;7.93;;;4.30;;
3845;SDS011;1938;50.812;7.738;2022-09-28T03:03:47;8.70;;;4.80;;
3845;SDS011;1938;50.812;7.738;2022-09-28T03:06:22;7.30;;;4.20;;
3845;SDS011;1938;50.812;7.738;2022-09-28T03:11:45;9.33;;;4.20;;
3845;SDS011;1938;50.812;7.738;2022-09-28T03:14:13;7.63;;;4.57;;
3845;SDS011;1938;50.812;7.738;2022-09-28T03:16:43;8.43;;;5.10;;
3845;SDS011;1938;50.812;7.738;2022-09-28T03:19:12;6.27;;;4.30;;
3845;SDS011;1938;50.812;7.738;2022-09-28T03:21:40;10.43;;;5.97;;
3845;SDS011;1938;50.812;7.738;2022-09-28T03:24:07;8.20;;;4.90;;
3845;SDS011;1938;50.812;7.738;2022-09-28T03:26:36;7.60;;;5.20;;
3845;SDS011;1938;50.812;7.738;2022-09-28T03:29:02;9.10;;;5.17;;
3845;SDS011;1938;50.812;7.738;2022-09-28T03:31:28;12.60;;;5.30;;
3845;SDS011;1938;50.812;7.738;2022-09-28T03:33:54;8.10;;;4.70;;
3845;SDS011;1938;50.812;7.738;2022-09-28T03:36:19;15.53;;;6.07;;
3845;SDS011;1938;50.812;7.738;2022-09-28T03:38:45;18.90;;;7.00;;
3845;SDS011;1938;50.812;7.738;2022-09-28T03:41:11;12.97;;;6.33;;
3845;SDS011;1938;50.812;7.738;2022-09-28T03:43:37;16.70;;;7.03;;
3845;SDS011;1938;50.812;7.738;2022-09-28T03:46:02;16.17;;;7.50;;
3845;SDS011;1938;50.812;7.738;2022-09-28T03:48:30;12.60;;;7.10;;
3845;SDS011;1938;50.812;7.738;2022-09-28T03:50:57;11.50;;;7.43;;
3845;SDS011;1938;50.812;7.738;2022-09-28T03:53:27;11.10;;;6.73;;
3845;SDS011;1938;50.812;7.738;2022-09-28T03:55:54;12.47;;;7.80;;
3845;SDS011;1938;50.812;7.738;2022-09-28T03:58:20;10.93;;;7.23;;
3845;SDS011;1938;50.812;7.738;2022-09-28T04:00:47;15.37;;;8.57;;
3845;SDS011;1938;50.812;7.738;2022-09-28T04:03:13;9.53;;;6.77;;
3845;SDS011;1938;50.812;7.738;2022-09-28T04:05:49;13.40;;;6.87;;
3845;SDS011;1938;50.812;7.738;2022-09-28T04:08:15;12.80;;;7.20;;
3845;SDS011;1938;50.812;7.738;2022-09-28T04:10:41;11.00;;;7.47;;
3845;SDS011;1938;50.812;7.738;2022-09-28T04:13:07;15.33;;;7.40;;
3845;SDS011;1938;50.812;7.738;2022-09-28T04:15:33;17.63;;;7.50;;
3845;SDS011;1938;50.812;7.738;2022-09-28T04:17:58;13.93;;;7.57;;
3845;SDS011;1938;50.812;7.738;2022-09-28T04:20:24;12.80;;;7.83;;
3845;SDS011;1938;50.812;7.738;2022-09-28T04:22:49;19.20;;;10.13;;
3845;SDS011;1938;50.812;7.738;2022-09-28T04:25:15;21.73;;;14.37;;
3845;SDS011;1938;50.812;7.738;2022-09-28T04:27:40;17.13;;;9.90;;
3845;SDS011;1938;50.812;7.738;2022-09-28T04:30:24;13.67;;;7.30;;
3845;SDS011;1938;50.812;7.738;2022-09-28T04:32:50;12.40;;;8.00;;
3845;SDS011;1938;50.812;7.738;2022-09-28T04:35:16;13.30;;;7.80;;
3845;SDS011;1938;50.812;7.738;2022-09-28T04:37:41;11.97;;;8.20;;
3845;SDS011;1938;50.812;7.738;2022-09-28T04:40:07;13.63;;;8.37;;
3845;SDS011;1938;50.812;7.738;2022-09-28T04:42:35;12.57;;;8.60;;
3845;SDS011;1938;50.812;7.738;2022-09-28T04:45:00;18.83;;;9.33;;
3845;SDS011;1938;50.812;7.738;2022-09-28T04:47:28;13.23;;;9.23;;
3845;SDS011;1938;50.812;7.738;2022-09-28T04:49:55;18.03;;;8.70;;
3845;SDS011;1938;50.812;7.738;2022-09-28T04:52:21;15.70;;;9.80;;
3845;SDS011;1938;50.812;7.738;2022-09-28T04:54:46;17.30;;;10.10;;
3845;SDS011;1938;50.812;7.738;2022-09-28T04:57:12;17.93;;;10.20;;
3845;SDS011;1938;50.812;7.738;2022-09-28T04:59:37;17.53;;;9.47;;
3845;SDS011;1938;50.812;7.738;2022-09-28T05:02:03;17.30;;;9.30;;
3845;SDS011;1938;50.812;7.738;2022-09-28T05:04:29;20.40;;;10.00;;
3845;SDS011;1938;50.812;7.738;2022-09-28T05:06:55;23.43;;;9.00;;
3845;SDS011;1938;50.812;7.738;2022-09-28T05:09:21;14.53;;;9.80;;
3845;SDS011;1938;50.812;7.738;2022-09-28T05:11:50;19.40;;;12.20;;
3845;SDS011;1938;50.812;7.738;2022-09-28T05:14:17;14.37;;;8.30;;
3845;SDS011;1938;50.812;7.738;2022-09-28T05:16:43;15.33;;;9.40;;
3845;SDS011;1938;50.812;7.738;2022-09-28T05:19:09;19.60;;;9.00;;
3845;SDS011;1938;50.812;7.738;2022-09-28T05:21:36;16.13;;;8.70;;
3845;SDS011;1938;50.812;7.738;2022-09-28T05:24:01;13.23;;;7.40;;
3845;SDS011;1938;50.812;7.738;2022-09-28T05:26:31;12.20;;;7.33;;
3845;SDS011;1938;50.812;7.738;2022-09-28T05:28:58;12.03;;;7.80;;
3845;SDS011;1938;50.812;7.738;2022-09-28T05:31:24;12.57;;;7.63;;
3845;SDS011;1938;50.812;7.738;2022-09-28T05:33:51;13.33;;;7.20;;
3845;SDS011;1938;50.812;7.738;2022-09-28T05:36:17;16.90;;;7.10;;
3845;SDS011;1938;50.812;7.738;2022-09-28T05:38:43;14.53;;;7.20;;
3845;SDS011;1938;50.812;7.738;2022-09-28T05:41:09;13.73;;;8.17;;
3845;SDS011;1938;50.812;7.738;2022-09-28T05:43:34;12.60;;;6.80;;
3845;SDS011;1938;50.812;7.738;2022-09-28T05:46:00;9.13;;;5.97;;
3845;SDS011;1938;50.812;7.738;2022-09-28T05:48:26;9.80;;;5.00;;
3845;SDS011;1938;50.812;7.738;2022-09-28T05:50:52;9.83;;;6.40;;
3845;SDS011;1938;50.812;7.738;2022-09-28T05:53:18;11.70;;;6.70;;
3845;SDS011;1938;50.812;7.738;2022-09-28T05:55:44;19.20;;;6.50;;
3845;SDS011;1938;50.812;7.738;2022-09-28T05:58:09;10.13;;;5.73;;
3845;SDS011;1938;50.812;7.738;2022-09-28T06:00:35;9.43;;;6.00;;
3845;SDS011;1938;50.812;7.738;2022-09-28T06:03:02;13.90;;;6.40;;
3845;SDS011;1938;50.812;7.738;2022-09-28T06:05:30;9.93;;;5.90;;
3845;SDS011;1938;50.812;7.738;2022-09-28T06:07:58;10.73;;;6.43;;
3845;SDS011;1938;50.812;7.738;2022-09-28T06:10:24;10.13;;;6.60;;
3845;SDS011;1938;50.812;7.738;2022-09-28T06:12:51;9.77;;;6.43;;
3845;SDS011;1938;50.812;7.738;2022-09-28T06:15:17;10.43;;;6.27;;
3845;SDS011;1938;50.812;7.738;2022-09-28T06:17:42;9.73;;;5.83;;
3845;SDS011;1938;50.812;7.738;2022-09-28T06:20:09;9.50;;;6.20;;
3845;SDS011;1938;50.812;7.738;2022-09-28T06:22:35;16.20;;;6.47;;
3845;SDS011;1938;50.812;7.738;2022-09-28T06:25:02;9.53;;;5.90;;
3845;SDS011;1938;50.812;7.738;2022-09-28T06:27:28;9.90;;;6.27;;
3845;SDS011;1938;50.812;7.738;2022-09-28T06:29:53;11.27;;;7.03;;
3845;SDS011;1938;50.812;7.738;2022-09-28T06:32:20;9.10;;;6.37;;
3845;SDS011;1938;50.812;7.738;2022-09-28T06:34:45;9.80;;;6.17;;
3845;SDS011;1938;50.812;7.738;2022-09-28T06:37:11;8.73;;;6.00;;
3845;SDS011;1938;50.812;7.738;2022-09-28T06:39:36;9.53;;;5.97;;
3845;SDS011;1938;50.812;7.738;2022-09-28T06:42:02;12.70;;;7.03;;
3845;SDS011;1938;50.812;7.738;2022-09-28T06:44:28;8.70;;;6.00;;
3845;SDS011;1938;50.812;7.738;2022-09-28T06:46:54;11.70;;;6.10;;
3845;SDS011;1938;50.812;7.738;2022-09-28T06:49:20;10.37;;;7.20;;
3845;SDS011;1938;50.812;7.738;2022-09-28T06:51:46;10.17;;;6.20;;
3845;SDS011;1938;50.812;7.738;2022-09-28T06:54:11;10.90;;;6.57;;
3845;SDS011;1938;50.812;7.738;2022-09-28T06:56:37;11.50;;;7.27;;
3845;SDS011;1938;50.812;7.738;2022-09-28T06:59:02;14.10;;;8.13;;
3845;SDS011;1938;50.812;7.738;2022-09-28T07:01:28;10.90;;;6.40;;
3845;SDS011;1938;50.812;7.738;2022-09-28T07:03:53;12.10;;;7.80;;
3845;SDS011;1938;50.812;7.738;2022-09-28T07:06:20;11.07;;;7.50;;
3845;SDS011;1938;50.812;7.738;2022-09-28T07:08:48;14.83;;;8.53;;
3845;SDS011;1938;50.812;7.738;2022-09-28T07:11:14;17.20;;;9.63;;
3845;SDS011;1938;50.812;7.738;2022-09-28T07:13:39;13.57;;;9.20;;
3845;SDS011;1938;50.812;7.738;2022-09-28T07:16:05;11.47;;;7.97;;
3845;SDS011;1938;50.812;7.738;2022-09-28T07:18:31;13.03;;;9.47;;
3845;SDS011;1938;50.812;7.738;2022-09-28T07:20:56;16.70;;;9.40;;
3845;SDS011;1938;50.812;7.738;2022-09-28T07:23:23;19.33;;;9.83;;
3845;SDS011;1938;50.812;7.738;2022-09-28T07:25:53;13.40;;;9.83;;
3845;SDS011;1938;50.812;7.738;2022-09-28T07:28:19;13.47;;;8.23;;
3845;SDS011;1938;50.812;7.738;2022-09-28T07:30:45;14.90;;;7.87;;
3845;SDS011;1938;50.812;7.738;2022-09-28T07:33:12;13.10;;;8.30;;
3845;SDS011;1938;50.812;7.738;2022-09-28T07:35:39;12.67;;;8.53;;
3845;SDS011;1938;50.812;7.738;2022-09-28T07:38:06;13.93;;;8.57;;
3845;SDS011;1938;50.812;7.738;2022-09-28T07:40:34;12.20;;;8.20;;
3845;SDS011;1938;50.812;7.738;2022-09-28T07:43:18;11.40;;;7.97;;
3845;SDS011;1938;50.812;7.738;2022-09-28T07:45:48;12.60;;;8.50;;
3845;SDS011;1938;50.812;7.738;2022-09-28T07:48:16;16.60;;;8.93;;
3845;SDS011;1938;50.812;7.738;2022-09-28T07:50:52;14.50;;;8.57;;
3845;SDS011;1938;50.812;7.738;2022-09-28T07:53:21;10.80;;;8.20;;
3845;SDS011;1938;50.812;7.738;2022-09-28T07:55:55;10.97;;;8.07;;
3845;SDS011;1938;50.812;7.738;2022-09-28T07:58:26;20.20;;;7.03;;
3845;SDS011;1938;50.812;7.738;2022-09-28T08:00:51;14.87;;;9.43;;
3845;SDS011;1938;50.812;7.738;2022-09-28T08:03:18;10.93;;;7.40;;
3845;SDS011;1938;50.812;7.738;2022-09-28T08:05:46;10.03;;;7.90;;
3845;SDS011;1938;50.812;7.738;2022-09-28T08:08:13;10.00;;;6.57;;
3845;SDS011;1938;50.812;7.738;2022-09-28T08:10:40;11.33;;;6.60;;
3845;SDS011;1938;50.812;7.738;2022-09-28T08:13:07;10.13;;;6.10;;
3845;SDS011;1938;50.812;7.738;2022-09-28T08:15:33;11.40;;;5.93;;
3845;SDS011;1938;50.812;7.738;2022-09-28T08:18:05;8.00;;;5.57;;
3845;SDS011;1938;50.812;7.738;2022-09-28T08:20:31;8.03;;;6.80;;
3845;SDS011;1938;50.812;7.738;2022-09-28T08:23:15;11.73;;;5.73;;
3845;SDS011;1938;50.812;7.738;2022-09-28T08:25:50;14.80;;;6.17;;
3845;SDS011;1938;50.812;7.738;2022-09-28T08:28:18;11.43;;;5.90;;
3845;SDS011;1938;50.812;7.738;2022-09-28T08:30:44;7.50;;;5.80;;
3845;SDS011;1938;50.812;7.738;2022-09-28T08:33:11;21.53;;;5.20;;
3845;SDS011;1938;50.812;7.738;2022-09-28T08:35:41;7.67;;;5.80;;
3845;SDS011;1938;50.812;7.738;2022-09-28T08:38:08;10.53;;;6.20;;
3845;SDS011;1938;50.812;7.738;2022-09-28T08:40:36;8.13;;;5.90;;
3845;SDS011;1938;50.812;7.738;2022-09-28T08:43:29;7.40;;;5.30;;
3845;SDS011;1938;50.812;7.738;2022-09-28T08:45:59;7.97;;;4.33;;
3845;SDS011;1938;50.812;7.738;2022-09-28T08:48:27;6.60;;;5.20;;
3845;SDS011;1938;50.812;7.738;2022-09-28T08:51:14;5.63;;;4.53;;
3845;SDS011;1938;50.812;7.738;2022-09-28T08:56:31;7.50;;;4.33;;
3845;SDS011;1938;50.812;7.738;2022-09-28T08:59:15;8.83;;;4.37;;
3845;SDS011;1938;50.812;7.738;2022-09-28T09:01:46;6.00;;;4.63;;
3845;SDS011;1938;50.812;7.738;2022-09-28T09:04:23;5.50;;;3.73;;
3845;SDS011;1938;50.812;7.738;2022-09-28T09:06:53;10.10;;;3.50;;
3845;SDS011;1938;50.812;7.738;2022-09-28T09:20:44;7.00;;;3.13;;
3845;SDS011;1938;50.812;7.738;2022-09-28T09:25:49;5.37;;;3.33;;
3845;SDS011;1938;50.812;7.738;2022-09-28T09:33:43;5.70;;;3.20;;
3845;SDS011;1938;50.812;7.738;2022-09-28T09:36:44;6.07;;;2.67;;
3845;SDS011;1938;50.812;7.738;2022-09-28T09:42:15;6.33;;;3.20;;
3845;SDS011;1938;50.812;7.738;2022-09-28T09:45:17;9.03;;;3.40;;
3845;SDS011;1938;50.812;7.738;2022-09-28T09:48:05;7.13;;;3.57;;
3845;SDS011;1938;50.812;7.738;2022-09-28T09:50:39;5.60;;;3.30;;
3845;SDS011;1938;50.812;7.738;2022-09-28T09:53:16;5.63;;;3.27;;
3845;SDS011;1938;50.812;7.738;2022-09-28T09:55:53;5.80;;;3.20;;
3845;SDS011;1938;50.812;7.738;2022-09-28T09:58:25;8.07;;;3.00;;
3845;SDS011;1938;50.812;7.738;2022-09-28T10:01:06;10.57;;;3.40;;
3845;SDS011;1938;50.812;7.738;2022-09-28T10:03:35;5.10;;;2.70;;
3845;SDS011;1938;50.812;7.738;2022-09-28T10:06:10;12.20;;;3.30;;
3845;SDS011;1938;50.812;7.738;2022-09-28T10:08:40;5.70;;;3.30;;
3845;SDS011;1938;50.812;7.738;2022-09-28T10:11:11;6.53;;;3.43;;
3845;SDS011;1938;50.812;7.738;2022-09-28T10:13:45;5.80;;;3.47;;
3845;SDS011;1938;50.812;7.738;2022-09-28T10:16:12;4.83;;;3.20;;
3845;SDS011;1938;50.812;7.738;2022-09-28T10:18:38;7.37;;;4.20;;
3845;SDS011;1938;50.812;7.738;2022-09-28T10:21:05;5.63;;;3.70;;
3845;SDS011;1938;50.812;7.738;2022-09-28T10:23:31;7.57;;;3.60;;
3845;SDS011;1938;50.812;7.738;2022-09-28T10:26:05;4.17;;;2.73;;
3845;SDS011;1938;50.812;7.738;2022-09-28T10:33:59;6.20;;;3.43;;
3845;SDS011;1938;50.812;7.738;2022-09-28T10:36:24;6.30;;;3.33;;
3845;SDS011;1938;50.812;7.738;2022-09-28T10:38:50;5.83;;;3.40;;
3845;SDS011;1938;50.812;7.738;2022-09-28T10:41:17;5.10;;;2.93;;
3845;SDS011;1938;50.812;7.738;2022-09-28T10:43:50;4.80;;;3.17;;
3845;SDS011;1938;50.812;7.738;2022-09-28T10:46:35;4.63;;;3.20;;
3845;SDS011;1938;50.812;7.738;2022-09-28T10:49:06;4.37;;;2.90;;
3845;SDS011;1938;50.812;7.738;2022-09-28T10:51:43;6.43;;;2.67;;
3845;SDS011;1938;50.812;7.738;2022-09-28T10:54:15;11.47;;;3.10;;
3845;SDS011;1938;50.812;7.738;2022-09-28T10:56:42;8.97;;;3.07;;
3845;SDS011;1938;50.812;7.738;2022-09-28T11:01:53;6.30;;;3.00;;
3845;SDS011;1938;50.812;7.738;2022-09-28T11:04:22;6.03;;;2.87;;
3845;SDS011;1938;50.812;7.738;2022-09-28T11:06:51;8.30;;;3.77;;
3845;SDS011;1938;50.812;7.738;2022-09-28T11:11:51;7.03;;;2.73;;
3845;SDS011;1938;50.812;7.738;2022-09-28T11:14:24;5.60;;;2.37;;
3845;SDS011;1938;50.812;7.738;2022-09-28T11:17:13;7.00;;;2.90;;
3845;SDS011;1938;50.812;7.738;2022-09-28T11:19:40;4.77;;;2.70;;
3845;SDS011;1938;50.812;7.738;2022-09-28T11:27:37;7.63;;;3.27;;
3845;SDS011;1938;50.812;7.738;2022-09-28T11:30:03;4.17;;;2.23;;
3845;SDS011;1938;50.812;7.738;2022-09-28T11:32:38;5.73;;;2.67;;
3845;SDS011;1938;50.812;7.738;2022-09-28T11:35:13;6.03;;;2.83;;
3845;SDS011;1938;50.812;7.738;2022-09-28T11:46:48;4.27;;;2.37;;
3845;SDS011;1938;50.812;7.738;2022-09-28T11:49:32;4.60;;;2.40;;
3845;SDS011;1938;50.812;7.738;2022-09-28T11:52:12;4.00;;;2.30;;
3845;SDS011;1938;50.812;7.738;2022-09-28T11:54:47;12.80;;;3.30;;
3845;SDS011;1938;50.812;7.738;2022-09-28T11:57:24;5.07;;;2.20;;
3845;SDS011;1938;50.812;7.738;2022-09-28T11:59:56;6.00;;;2.60;;
3845;SDS011;1938;50.812;7.738;2022-09-28T12:02:35;7.87;;;2.27;;
3845;SDS011;1938;50.812;7.738;2022-09-28T12:07:53;5.37;;;2.00;;
3845;SDS011;1938;50.812;7.738;2022-09-28T12:13:17;4.63;;;2.07;;
3845;SDS011;1938;50.812;7.738;2022-09-28T12:27:06;3.97;;;1.87;;
3845;SDS011;1938;50.812;7.738;2022-09-28T12:29:45;5.83;;;2.20;;
3845;SDS011;1938;50.812;7.738;2022-09-28T12:32:37;6.33;;;2.10;;
3845;SDS011;1938;50.812;7.738;2022-09-28T12:35:18;3.73;;;1.93;;
3845;SDS011;1938;50.812;7.738;2022-09-28T12:40:46;4.60;;;2.30;;
3845;SDS011;1938;50.812;7.738;2022-09-28T12:48:50;5.07;;;1.73;;
3845;SDS011;1938;50.812;7.738;2022-09-28T12:51:41;8.10;;;2.00;;
3845;SDS011;1938;50.812;7.738;2022-09-28T12:57:13;4.70;;;1.90;;
3845;SDS011;1938;50.812;7.738;2022-09-28T13:00:17;4.70;;;1.77;;
3845;SDS011;1938;50.812;7.738;2022-09-28T13:05:39;6.80;;;2.47;;
3845;SDS011;1938;50.812;7.738;2022-09-28T13:17:03;4.37;;;1.63;;
3845;SDS011;1938;50.812;7.738;2022-09-28T13:19:58;7.53;;;2.20;;
3845;SDS011;1938;50.812;7.738;2022-09-28T13:23:04;3.37;;;1.53;;
3845;SDS011;1938;50.812;7.738;2022-09-28T13:25:59;5.13;;;2.00;;
3845;SDS011;1938;50.812;7.738;2022-09-28T13:28:47;4.00;;;1.73;;
3845;SDS011;1938;50.812;7.738;2022-09-28T13:31:19;3.73;;;1.90;;
3845;SDS011;1938;50.812;7.738;2022-09-28T13:33:48;7.27;;;1.50;;
3845;SDS011;1938;50.812;7.738;2022-09-28T13:38:54;5.33;;;2.00;;
3845;SDS011;1938;50.812;7.738;2022-09-28T13:58:02;6.00;;;1.83;;
3845;SDS011;1938;50.812;7.738;2022-09-28T14:00:48;5.37;;;2.33;;
3845;SDS011;1938;50.812;7.738;2022-09-28T14:03:24;6.20;;;2.23;;
3845;SDS011;1938;50.812;7.738;2022-09-28T14:06:06;4.50;;;2.20;;
3845;SDS011;1938;50.812;7.738;2022-09-28T14:13:58;3.93;;;1.73;;
3845;SDS011;1938;50.812;7.738;2022-09-28T14:16:24;3.83;;;1.50;;
3845;SDS011;1938;50.812;7.738;2022-09-28T14:29:26;6.37;;;2.03;;
3845;SDS011;1938;50.812;7.738;2022-09-28T14:34:41;6.53;;;1.70;;
3845;SDS011;1938;50.812;7.738;2022-09-28T14:37:19;3.43;;;1.70;;
3845;SDS011;1938;50.812;7.738;2022-09-28T14:40:20;5.50;;;1.73;;
3845;SDS011;1938;50.812;7.738;2022-09-28T14:43:21;3.00;;;1.57;;
3845;SDS011;1938;50.812;7.738;2022-09-28T14:57:17;3.63;;;2.00;;
3845;SDS011;1938;50.812;7.738;2022-09-28T15:01:45;3.63;;;1.60;;
3845;SDS011;1938;50.812;7.738;2022-09-28T15:04:16;5.50;;;2.60;;
3845;SDS011;1938;50.812;7.738;2022-09-28T15:06:46;3.37;;;1.60;;
3845;SDS011;1938;50.812;7.738;2022-09-28T15:09:29;4.50;;;2.30;;
3845;SDS011;1938;50.812;7.738;2022-09-28T15:12:03;4.47;;;1.67;;
3845;SDS011;1938;50.812;7.738;2022-09-28T15:14:34;6.33;;;3.17;;
3845;SDS011;1938;50.812;7.738;2022-09-28T15:17:17;5.37;;;1.73;;
3845;SDS011;1938;50.812;7.738;2022-09-28T15:22:45;5.77;;;2.37;;
3845;SDS011;1938;50.812;7.738;2022-09-28T15:25:13;4.00;;;2.10;;
3845;SDS011;1938;50.812;7.738;2022-09-28T15:27:44;4.50;;;2.23;;
3845;SDS011;1938;50.812;7.738;2022-09-28T15:30:33;8.03;;;2.80;;
3845;SDS011;1938;50.812;7.738;2022-09-28T15:33:00;5.87;;;2.47;;
3845;SDS011;1938;50.812;7.738;2022-09-28T15:35:59;5.70;;;2.70;;
3845;SDS011;1938;50.812;7.738;2022-09-28T15:38:28;3.70;;;2.37;;
3845;SDS011;1938;50.812;7.738;2022-09-28T15:40:57;8.43;;;2.57;;
3845;SDS011;1938;50.812;7.738;2022-09-28T15:43:27;5.40;;;2.73;;
3845;SDS011;1938;50.812;7.738;2022-09-28T15:48:53;8.53;;;2.87;;
3845;SDS011;1938;50.812;7.738;2022-09-28T15:51:21;4.77;;;2.37;;
3845;SDS011;1938;50.812;7.738;2022-09-28T15:59:36;4.87;;;2.80;;
3845;SDS011;1938;50.812;7.738;2022-09-28T16:09:52;14.77;;;3.20;;
3845;SDS011;1938;50.812;7.738;2022-09-28T16:12:19;6.90;;;3.23;;
3845;SDS011;1938;50.812;7.738;2022-09-28T16:14:50;6.43;;;2.90;;
3845;SDS011;1938;50.812;7.738;2022-09-28T16:17:18;7.63;;;3.50;;
3845;SDS011;1938;50.812;7.738;2022-09-28T16:19:57;7.70;;;2.83;;
3845;SDS011;1938;50.812;7.738;2022-09-28T16:22:27;5.10;;;3.00;;
3845;SDS011;1938;50.812;7.738;2022-09-28T16:24:56;5.20;;;3.23;;
3845;SDS011;1938;50.812;7.738;2022-09-28T16:27:40;7.73;;;2.83;;
3845;SDS011;1938;50.812;7.738;2022-09-28T16:30:13;4.17;;;2.40;;
3845;SDS011;1938;50.812;7.738;2022-09-28T16:33:01;6.93;;;2.97;;
3845;SDS011;1938;50.812;7.738;2022-09-28T16:38:10;9.30;;;3.20;;
3845;SDS011;1938;50.812;7.738;2022-09-28T16:40:39;6.50;;;3.47;;
3845;SDS011;1938;50.812;7.738;2022-09-28T16:43:06;6.50;;;3.07;;
3845;SDS011;1938;50.812;7.738;2022-09-28T16:45:33;7.30;;;4.00;;
3845;SDS011;1938;50.812;7.738;2022-09-28T16:48:01;6.63;;;3.67;;
3845;SDS011;1938;50.812;7.738;2022-09-28T16:50:28;7.63;;;4.73;;
3845;SDS011;1938;50.812;7.738;2022-09-28T16:53:02;14.47;;;4.57;;
3845;SDS011;1938;50.812;7.738;2022-09-28T16:55:55;10.73;;;5.70;;
3845;SDS011;1938;50.812;7.738;2022-09-28T16:58:21;7.37;;;5.00;;
3845;SDS011;1938;50.812;7.738;2022-09-28T17:00:49;6.47;;;4.57;;
3845;SDS011;1938;50.812;7.738;2022-09-28T17:03:17;6.53;;;4.10;;
3845;SDS011;1938;50.812;7.738;2022-09-28T17:05:43;8.93;;;3.20;;
3845;SDS011;1938;50.812;7.738;2022-09-28T17:08:12;3.40;;;1.70;;
3845;SDS011;1938;50.812;7.738;2022-09-28T17:10:42;3.00;;;1.53;;
3845;SDS011;1938;50.812;7.738;2022-09-28T17:13:12;3.33;;;1.53;;
3845;SDS011;1938;50.812;7.738;2022-09-28T17:15:39;3.50;;;1.80;;
3845;SDS011;1938;50.812;7.738;2022-09-28T17:18:06;3.50;;;1.40;;
3845;SDS011;1938;50.812;7.738;2022-09-28T17:20:32;2.60;;;1.40;;
3845;SDS011;1938;50.812;7.738;2022-09-28T17:22:59;3.83;;;1.20;;
3845;SDS011;1938;50.812;7.738;2022-09-28T17:25:25;6.63;;;1.87;;
3845;SDS011;1938;50.812;7.738;2022-09-28T17:27:52;3.53;;;1.77;;
3845;SDS011;1938;50.812;7.738;2022-09-28T17:30:19;5.33;;;2.50;;
3845;SDS011;1938;50.812;7.738;2022-09-28T17:32:46;7.10;;;3.27;;
3845;SDS011;1938;50.812;7.738;2022-09-28T17:35:15;7.73;;;4.60;;
3845;SDS011;1938;50.812;7.738;2022-09-28T17:37:42;7.47;;;2.50;;
3845;SDS011;1938;50.812;7.738;2022-09-28T17:42:42;4.33;;;1.63;;
3845;SDS011;1938;50.812;7.738;2022-09-28T17:45:07;3.60;;;1.83;;
3845;SDS011;1938;50.812;7.738;2022-09-28T17:47:33;3.97;;;2.27;;
3845;SDS011;1938;50.812;7.738;2022-09-28T17:49:58;6.97;;;2.70;;
3845;SDS011;1938;50.812;7.738;2022-09-28T17:52:24;5.63;;;2.77;;
3845;SDS011;1938;50.812;7.738;2022-09-28T17:54:49;5.33;;;3.40;;
3845;SDS011;1938;50.812;7.738;2022-09-28T17:57:15;6.20;;;2.70;;
3845;SDS011;1938;50.812;7.738;2022-09-28T17:59:40;9.60;;;2.67;;
3845;SDS011;1938;50.812;7.738;2022-09-28T18:02:08;9.30;;;5.23;;
3845;SDS011;1938;50.812;7.738;2022-09-28T18:04:35;7.90;;;4.60;;
3845;SDS011;1938;50.812;7.738;2022-09-28T18:07:00;11.00;;;4.20;;
3845;SDS011;1938;50.812;7.738;2022-09-28T18:09:26;5.70;;;2.90;;
3845;SDS011;1938;50.812;7.738;2022-09-28T18:11:57;5.30;;;3.07;;
3845;SDS011;1938;50.812;7.738;2022-09-28T18:14:24;6.83;;;4.37;;
3845;SDS011;1938;50.812;7.738;2022-09-28T18:16:50;9.03;;;4.27;;
3845;SDS011;1938;50.812;7.738;2022-09-28T18:19:15;7.13;;;3.40;;
3845;SDS011;1938;50.812;7.738;2022-09-28T18:21:41;7.07;;;3.57;;
3845;SDS011;1938;50.812;7.738;2022-09-28T18:24:08;5.20;;;3.37;;
3845;SDS011;1938;50.812;7.738;2022-09-28T18:26:33;5.73;;;2.83;;
3845;SDS011;1938;50.812;7.738;2022-09-28T18:28:59;4.77;;;3.47;;
3845;SDS011;1938;50.812;7.738;2022-09-28T18:31:24;7.03;;;3.53;;
3845;SDS011;1938;50.812;7.738;2022-09-28T18:33:55;8.03;;;2.90;;
3845;SDS011;1938;50.812;7.738;2022-09-28T18:36:26;9.33;;;4.37;;
3845;SDS011;1938;50.812;7.738;2022-09-28T18:38:53;6.07;;;3.80;;
3845;SDS011;1938;50.812;7.738;2022-09-28T18:41:18;7.37;;;5.10;;
3845;SDS011;1938;50.812;7.738;2022-09-28T18:43:47;5.80;;;3.63;;
3845;SDS011;1938;50.812;7.738;2022-09-28T18:46:13;8.43;;;5.33;;
3845;SDS011;1938;50.812;7.738;2022-09-28T18:48:41;8.80;;;4.80;;